createdAt,value
2017-11-01T00:00:15.354Z,98560.13
2017-11-01T00:02:43.209Z,98563.17
2017-11-01T00:05:10.889Z,98563.42
2017-11-01T00:07:39.682Z,98571.16
2017-11-01T00:10:07.304Z,98563.22
2017-11-01T00:12:35.330Z,98560.09
2017-11-01T00:15:03.260Z,98565.12
2017-11-01T00:17:30.915Z,98562.41
2017-11-01T00:20:01.051Z,98570.83
2017-11-01T00:22:28.830Z,98561.02
2017-11-01T00:24:56.549Z,98562.32
2017-11-01T00:27:25.401Z,98564.52
2017-11-01T00:29:54.219Z,98568.31
2017-11-01T00:32:22.081Z,98567.80
2017-11-01T00:34:50.633Z,98563.26
2017-11-01T00:37:19.774Z,98559.61
2017-11-01T00:39:47.428Z,98553.77
2017-11-01T00:42:15.132Z,98555.23
2017-11-01T00:44:43.796Z,98559.49
2017-11-01T00:47:11.499Z,98558.55
2017-11-01T00:49:39.473Z,98562.77
2017-11-01T00:52:07.274Z,98557.42
2017-11-01T00:54:34.930Z,98556.08
2017-11-01T00:57:02.887Z,98554.68
2017-11-01T00:59:33.844Z,98558.26
2017-11-01T01:02:01.820Z,98552.89
2017-11-01T01:04:29.879Z,98555.09
2017-11-01T01:09:47.653Z,98561.01
2017-11-01T01:12:16.209Z,98555.59
2017-11-01T01:14:44.027Z,98548.14
2017-11-01T01:17:11.784Z,98548.50
2017-11-01T01:19:39.752Z,98539.05
2017-11-01T01:22:18.317Z,98543.27
2017-11-01T01:24:48.494Z,98533.27
2017-11-01T01:27:16.237Z,98529.66
2017-11-01T01:29:44.729Z,98534.73
2017-11-01T01:32:12.427Z,98538.05
2017-11-01T01:34:42.605Z,98535.82
2017-11-01T01:37:10.362Z,98542.94
2017-11-01T01:39:38.158Z,98542.83
2017-11-01T01:42:06.076Z,98543.27
2017-11-01T01:44:34.817Z,98538.73
2017-11-01T01:47:02.570Z,98531.41
2017-11-01T01:49:30.238Z,98530.23
2017-11-01T01:55:11.141Z,98526.89
2017-11-01T01:57:46.718Z,98526.22
2017-11-01T02:00:34.214Z,98528.56
2017-11-01T02:03:02.236Z,98518.91
2017-11-01T02:05:29.849Z,98520.58
2017-11-01T02:07:58.224Z,98526.53
2017-11-01T02:12:59.838Z,98524.59
2017-11-01T02:18:01.285Z,98525.06
2017-11-01T02:20:29.395Z,98533.52
2017-11-01T02:22:57.647Z,98525.62
2017-11-01T02:25:25.349Z,98529.63
2017-11-01T02:27:52.940Z,98525.55
2017-11-01T02:30:20.797Z,98525.19
2017-11-01T02:32:48.626Z,98524.17
2017-11-01T02:35:16.394Z,98526.75
2017-11-01T02:37:53.371Z,98525.39
2017-11-01T02:40:21.427Z,98528.93
2017-11-01T02:42:49.244Z,98520.03
2017-11-01T02:45:17.261Z,98520.38
2017-11-01T02:47:45.162Z,98528.06
2017-11-01T02:50:12.895Z,98530.54
2017-11-01T02:52:40.732Z,98526.29
2017-11-01T02:55:08.529Z,98526.27
2017-11-01T02:57:36.266Z,98530.17
2017-11-01T03:00:04.024Z,98531.09
2017-11-01T03:02:34.040Z,98526.94
2017-11-01T03:05:01.736Z,98526.27
2017-11-01T03:07:29.353Z,98531.68
2017-11-01T03:09:56.992Z,98531.06
2017-11-01T03:12:25.208Z,98524.02
2017-11-01T03:14:52.905Z,98517.38
2017-11-01T03:17:20.832Z,98518.89
2017-11-01T03:19:49.466Z,98513.98
2017-11-01T03:22:17.138Z,98517.06
2017-11-01T03:24:45.874Z,98516.29
2017-11-01T03:27:13.693Z,98515.20
2017-11-01T03:29:41.569Z,98517.77
2017-11-01T03:32:09.425Z,98517.38
2017-11-01T03:34:37.121Z,98517.81
2017-11-01T03:37:04.967Z,98512.09
2017-11-01T03:39:32.677Z,98499.05
2017-11-01T03:42:00.495Z,98495.50
2017-11-01T03:44:28.351Z,98502.00
2017-11-01T03:46:55.968Z,98506.75
2017-11-01T03:49:26.171Z,98502.83
2017-11-01T03:51:54.663Z,98491.69
2017-11-01T03:54:23.799Z,98478.11
2017-11-01T03:56:51.475Z,98486.46
2017-11-01T03:59:19.193Z,98488.28
2017-11-01T04:01:46.931Z,98488.48
2017-11-01T04:04:14.667Z,98494.56
2017-11-01T04:06:42.486Z,98496.14
2017-11-01T04:09:10.167Z,98491.44
2017-11-01T04:11:37.759Z,98485.11
2017-11-01T04:14:05.495Z,98482.86
2017-11-01T04:16:33.213Z,98485.33
2017-11-01T04:19:06.332Z,98481.97
2017-11-01T04:21:35.371Z,98484.80
2017-11-01T04:24:04.150Z,98484.92
2017-11-01T04:26:31.788Z,98477.02
2017-11-01T04:29:00.199Z,98483.91
2017-11-01T04:31:27.940Z,98481.59
2017-11-01T04:33:56.452Z,98479.95
2017-11-01T04:36:25.155Z,98471.98
2017-11-01T04:38:52.880Z,98459.97
2017-11-01T04:41:20.624Z,98462.28
2017-11-01T04:43:48.571Z,98458.30
2017-11-01T04:46:16.505Z,98466.03
2017-11-01T04:48:44.376Z,98475.39
2017-11-01T04:51:15.976Z,98488.57
2017-11-01T04:53:43.829Z,98481.11
2017-11-01T04:56:11.727Z,98473.50
2017-11-01T04:58:39.984Z,98476.46
2017-11-01T05:01:07.801Z,98475.97
2017-11-01T05:03:35.479Z,98477.63
2017-11-01T05:06:04.303Z,98480.02
2017-11-01T05:08:37.612Z,98479.92
2017-11-01T05:11:09.463Z,98485.00
2017-11-01T05:13:43.767Z,98480.71
2017-11-01T05:16:12.966Z,98477.27
2017-11-01T05:18:41.422Z,98471.63
2017-11-01T05:21:09.278Z,98484.55
2017-11-01T05:23:38.075Z,98489.28
2017-11-01T05:26:07.913Z,98484.46
2017-11-01T05:28:35.670Z,98482.51
2017-11-01T05:31:03.806Z,98474.71
2017-11-01T05:33:31.589Z,98471.55
2017-11-01T05:35:59.483Z,98468.27
2017-11-01T05:38:27.177Z,98462.64
2017-11-01T05:40:55.975Z,98460.81
2017-11-01T05:43:23.844Z,98462.88
2017-11-01T05:45:51.699Z,98468.45
2017-11-01T05:48:19.586Z,98467.91
2017-11-01T05:50:47.404Z,98469.80
2017-11-01T05:53:15.534Z,98463.57
2017-11-01T05:55:48.818Z,98458.53
2017-11-01T05:58:16.694Z,98461.89
2017-11-01T06:00:45.593Z,98467.18
2017-11-01T06:03:13.390Z,98464.05
2017-11-01T06:05:41.024Z,98465.84
2017-11-01T06:16:42.452Z,98477.16
2017-11-01T06:19:11.949Z,98474.25
2017-11-01T06:21:39.808Z,98468.34
2017-11-01T06:24:07.463Z,98479.24
2017-11-01T06:26:35.460Z,98485.66
2017-11-01T06:29:05.880Z,98481.08
2017-11-01T06:31:33.496Z,98475.73
2017-11-01T06:34:01.353Z,98486.30
2017-11-01T06:36:29.071Z,98481.78
2017-11-01T06:38:56.913Z,98483.57
2017-11-01T06:41:24.687Z,98481.48
2017-11-01T06:43:53.323Z,98484.56
2017-11-01T06:46:20.942Z,98478.03
2017-11-01T06:48:48.728Z,98484.78
2017-11-01T06:51:16.455Z,98496.25
2017-11-01T06:53:44.223Z,98508.33
2017-11-01T06:56:12.635Z,98502.92
2017-11-01T06:58:40.449Z,98507.59
2017-11-01T07:01:08.235Z,98506.58
2017-11-01T07:03:36.004Z,98510.53
2017-11-01T07:06:04.842Z,98520.90
2017-11-01T07:08:33.061Z,98536.09
2017-11-01T07:11:00.838Z,98524.85
2017-11-01T07:13:28.545Z,98530.31
2017-11-01T07:15:56.202Z,98536.48
2017-11-01T07:18:24.709Z,98523.44
2017-11-01T07:20:52.428Z,98522.86
2017-11-01T07:23:20.116Z,98516.05
2017-11-01T07:25:48.780Z,98532.74
2017-11-01T07:28:16.597Z,98527.95
2017-11-01T07:30:55.260Z,98517.55
2017-11-01T07:33:22.954Z,98525.08
2017-11-01T07:35:50.653Z,98525.81
2017-11-01T07:38:18.528Z,98522.08
2017-11-01T07:40:46.265Z,98514.63
2017-11-01T07:43:14.344Z,98516.19
2017-11-01T07:45:41.888Z,98511.89
2017-11-01T07:48:09.390Z,98509.14
2017-11-01T07:50:36.993Z,98508.89
2017-11-01T07:53:04.595Z,98511.25
2017-11-01T07:55:32.111Z,98516.92
2017-11-01T07:57:59.810Z,98524.17
2017-11-01T08:00:27.395Z,98521.40
2017-11-01T08:02:54.903Z,98522.02
2017-11-01T08:05:22.536Z,98516.94
2017-11-01T08:07:50.177Z,98515.19
2017-11-01T08:10:17.777Z,98511.09
2017-11-01T08:12:45.318Z,98513.32
2017-11-01T08:15:12.927Z,98513.16
2017-11-01T08:17:40.667Z,98504.95
2017-11-01T08:20:08.328Z,98511.59
2017-11-01T08:22:35.926Z,98507.67
2017-11-01T08:25:03.521Z,98504.39
2017-11-01T08:27:31.120Z,98505.58
2017-11-01T08:29:58.735Z,98504.42
2017-11-01T08:32:26.299Z,98497.30
2017-11-01T08:34:53.915Z,98496.86
2017-11-01T08:37:21.528Z,98497.44
2017-11-01T08:39:49.122Z,98498.56
2017-11-01T08:42:16.722Z,98502.54
2017-11-01T08:44:44.319Z,98507.63
2017-11-01T08:47:12.062Z,98469.61
2017-11-01T08:49:39.918Z,98514.55
2017-11-01T08:52:07.569Z,98512.89
2017-11-01T08:54:35.265Z,98516.61
2017-11-01T08:57:02.938Z,98513.12
2017-11-01T08:59:30.523Z,98513.72
2017-11-01T09:01:58.544Z,98500.52
2017-11-01T09:04:27.156Z,98504.57
2017-11-01T09:06:55.110Z,98502.75
2017-11-01T09:09:22.722Z,98507.27
2017-11-01T09:11:50.342Z,98494.75
2017-11-01T09:14:18.106Z,98502.72
2017-11-01T09:16:46.020Z,98499.77
2017-11-01T09:19:14.279Z,98495.47
2017-11-01T09:21:41.876Z,98496.52
2017-11-01T09:24:09.458Z,98501.36
2017-11-01T09:26:37.137Z,98502.58
2017-11-01T09:29:04.746Z,98502.55
2017-11-01T09:31:32.364Z,98499.75
2017-11-01T09:33:59.938Z,98499.66
2017-11-01T09:36:27.502Z,98506.52
2017-11-01T09:38:55.091Z,98499.46
2017-11-01T09:41:22.911Z,98500.91
2017-11-01T09:43:54.133Z,98501.70
2017-11-01T09:46:22.203Z,98503.22
2017-11-01T09:48:50.845Z,98506.26
2017-11-01T09:51:21.693Z,98501.13
2017-11-01T09:53:51.548Z,98496.89
2017-11-01T09:56:20.010Z,98499.98
2017-11-01T09:58:47.998Z,98492.39
2017-11-01T10:01:23.310Z,98493.86
2017-11-01T10:03:51.006Z,98486.14
2017-11-01T10:06:28.621Z,98478.26
2017-11-01T10:08:56.217Z,98486.05
2017-11-01T10:11:23.817Z,98471.83
2017-11-01T10:13:52.558Z,98475.84
2017-11-01T10:16:20.147Z,98477.07
2017-11-01T10:18:48.349Z,98474.19
2017-11-01T10:21:16.046Z,98482.27
2017-11-01T10:23:43.867Z,98474.80
2017-11-01T10:26:11.534Z,98474.62
2017-11-01T10:28:39.856Z,98470.32
2017-11-01T10:31:07.912Z,98469.14
2017-11-01T10:33:35.952Z,98464.95
2017-11-01T10:36:03.746Z,98462.98
2017-11-01T10:38:34.215Z,98467.98
2017-11-01T10:41:01.863Z,98465.02
2017-11-01T10:43:29.508Z,98466.12
2017-11-01T10:45:57.037Z,98465.41
2017-11-01T10:48:24.650Z,98458.26
2017-11-01T10:50:52.204Z,98460.92
2017-11-01T10:53:19.805Z,98459.17
2017-11-01T10:55:47.463Z,98452.34
2017-11-01T10:58:16.088Z,98454.92
2017-11-01T11:00:43.782Z,98446.42
2017-11-01T11:03:11.953Z,98443.11
2017-11-01T11:05:39.542Z,98443.80
2017-11-01T11:08:07.087Z,98439.80
2017-11-01T11:10:34.647Z,98444.67
2017-11-01T11:13:02.201Z,98435.78
2017-11-01T11:15:30.520Z,98429.05
2017-11-01T11:17:58.807Z,98428.96
2017-11-01T11:20:26.390Z,98419.48
2017-11-01T11:22:53.946Z,98382.98
2017-11-01T11:25:23.612Z,98411.88
2017-11-01T11:27:51.244Z,98408.25
2017-11-01T11:30:18.815Z,98415.44
2017-11-01T11:32:46.401Z,98418.70
2017-11-01T11:35:14.082Z,98408.98
2017-11-01T11:37:41.709Z,98407.56
2017-11-01T11:40:09.367Z,98286.70
2017-11-01T11:42:37.011Z,98400.53
2017-11-01T11:45:04.624Z,98397.30
2017-11-01T11:47:32.246Z,98395.31
2017-11-01T11:49:59.914Z,98388.72
2017-11-01T11:52:27.848Z,98385.75
2017-11-01T11:54:55.684Z,98386.58
2017-11-01T11:57:23.334Z,98378.84
2017-11-01T11:59:51.284Z,98375.66
2017-11-01T12:02:19.136Z,98370.30
2017-11-01T12:04:46.862Z,98372.72
2017-11-01T12:07:14.927Z,98368.31
2017-11-01T12:09:43.980Z,98366.22
2017-11-01T12:12:13.597Z,98366.07
2017-11-01T12:14:42.777Z,98359.94
2017-11-01T12:17:13.571Z,98362.31
2017-11-01T12:19:43.594Z,98358.39
2017-11-01T12:22:13.008Z,98348.86
2017-11-01T12:24:41.485Z,98354.11
2017-11-01T12:27:09.516Z,98349.30
2017-11-01T12:29:37.243Z,98341.23
2017-11-01T12:32:04.880Z,98341.58
2017-11-01T12:34:32.745Z,98340.57
2017-11-01T12:37:00.714Z,98337.53
2017-11-01T12:39:29.423Z,98325.19
2017-11-01T12:41:57.521Z,98319.56
2017-11-01T12:44:25.235Z,98326.50
2017-11-01T12:46:54.429Z,98322.60
2017-11-01T12:49:22.647Z,98318.47
2017-11-01T12:51:51.499Z,98318.16
2017-11-01T12:54:19.916Z,98316.95
2017-11-01T12:56:48.944Z,98310.36
2017-11-01T12:59:18.079Z,98314.37
2017-11-01T13:01:46.630Z,98311.41
2017-11-01T13:04:16.011Z,98312.41
2017-11-01T13:06:45.468Z,98307.33
2017-11-01T13:09:15.417Z,98300.63
2017-11-01T13:11:45.351Z,98302.28
2017-11-01T13:14:15.272Z,98296.06
2017-11-01T13:16:42.930Z,98295.47
2017-11-01T13:19:11.183Z,98291.94
2017-11-01T13:21:39.182Z,98292.68
2017-11-01T13:24:07.080Z,98290.98
2017-11-01T13:26:36.025Z,98286.30
2017-11-01T13:29:04.702Z,98286.63
2017-11-01T13:31:32.750Z,98276.28
2017-11-01T13:34:02.293Z,98284.30
2017-11-01T13:36:30.130Z,98287.13
2017-11-01T13:38:58.892Z,98285.37
2017-11-01T13:41:28.270Z,98285.09
2017-11-01T13:43:56.177Z,98274.09
2017-11-01T13:46:24.248Z,98275.84
2017-11-01T13:48:53.209Z,98276.47
2017-11-01T13:51:21.846Z,98296.02
2017-11-01T13:53:50.032Z,98270.59
2017-11-01T13:56:17.805Z,98265.67
2017-11-01T13:58:45.402Z,98266.42
2017-11-01T14:01:12.996Z,98258.50
2017-11-01T14:03:40.569Z,98250.78
2017-11-01T14:06:09.170Z,98255.73
2017-11-01T14:08:36.749Z,98248.14
2017-11-01T14:11:04.305Z,98205.41
2017-11-01T14:13:31.862Z,98252.28
2017-11-01T14:15:59.471Z,98249.45
2017-11-01T14:18:27.276Z,98249.45
2017-11-01T14:20:55.219Z,98245.63
2017-11-01T14:23:23.571Z,98250.59
2017-11-01T14:25:51.107Z,98257.66
2017-11-01T14:28:18.745Z,98248.47
2017-11-01T14:30:46.358Z,98260.16
2017-11-01T14:33:14.098Z,98259.66
2017-11-01T14:35:42.339Z,98255.45
2017-11-01T14:38:09.900Z,98256.00
2017-11-01T14:40:37.550Z,98251.86
2017-11-01T14:43:05.088Z,98248.53
2017-11-01T14:45:32.888Z,98248.77
2017-11-01T14:48:01.439Z,98245.39
2017-11-01T14:50:28.984Z,98241.33
2017-11-01T14:52:56.559Z,98238.67
2017-11-01T14:55:24.137Z,98243.55
2017-11-01T14:57:51.817Z,98238.03
2017-11-01T15:00:19.369Z,98232.28
2017-11-01T15:02:46.949Z,98221.48
2017-11-01T15:05:14.547Z,98225.81
2017-11-01T15:07:42.110Z,98219.30
2017-11-01T15:10:09.694Z,98222.11
2017-11-01T15:12:37.272Z,98226.98
2017-11-01T15:15:04.910Z,98222.38
2017-11-01T15:17:32.489Z,98230.30
2017-11-01T15:20:00.073Z,98224.91
2017-11-01T15:22:27.904Z,98223.98
2017-11-01T15:24:55.521Z,98227.24
2017-11-01T15:27:23.841Z,98226.84
2017-11-01T15:29:51.400Z,98219.50
2017-11-01T15:32:18.971Z,98224.77
2017-11-01T15:34:46.568Z,98223.09
2017-11-01T15:37:14.124Z,98226.38
2017-11-01T15:39:42.140Z,98224.98
2017-11-01T15:42:09.814Z,98229.46
2017-11-01T15:44:37.811Z,98223.50
2017-11-01T15:47:05.444Z,98230.20
2017-11-01T15:49:33.079Z,98219.82
2017-11-01T15:52:01.196Z,98228.45
2017-11-01T15:54:29.207Z,98223.34
2017-11-01T15:56:58.021Z,98221.73
2017-11-01T15:59:25.967Z,98223.12
2017-11-01T16:01:53.574Z,98213.29
2017-11-01T16:04:21.340Z,98211.52
2017-11-01T16:06:58.986Z,98202.78
2017-11-01T16:09:43.065Z,98206.58
2017-11-01T16:34:49.694Z,98192.09
2017-11-01T16:40:27.369Z,98193.98
2017-11-01T16:42:55.080Z,98190.31
2017-11-01T16:45:22.892Z,98189.94
2017-11-01T16:47:50.864Z,98188.07
2017-11-01T16:50:33.336Z,98193.52
2017-11-01T16:56:03.685Z,98190.47
2017-11-01T17:18:34.940Z,98193.78
2017-11-01T17:21:03.407Z,98195.86
2017-11-01T17:26:26.557Z,98198.92
2017-11-01T17:49:03.804Z,98187.46
2017-11-01T17:51:31.497Z,98186.84
2017-11-01T17:53:59.522Z,98189.63
2017-11-01T17:56:27.065Z,98193.70
2017-11-01T17:58:55.260Z,98192.16
2017-11-01T18:01:23.272Z,98192.97
2017-11-01T18:03:52.525Z,98198.59
2017-11-01T18:06:20.934Z,98197.72
2017-11-01T18:08:48.521Z,98195.09
2017-11-01T18:11:16.238Z,98192.72
2017-11-01T18:13:43.790Z,98192.45
2017-11-01T18:16:12.271Z,98187.89
2017-11-01T18:18:40.619Z,98186.68
2017-11-01T18:21:08.195Z,98190.62
2017-11-01T18:23:36.892Z,98191.81
2017-11-01T18:26:04.470Z,98189.95
2017-11-01T18:28:32.122Z,98178.45
2017-11-01T18:30:59.723Z,98182.59
2017-11-01T18:33:27.343Z,98181.16
2017-11-01T18:35:56.542Z,98177.30
2017-11-01T18:38:24.387Z,98170.72
2017-11-01T18:40:53.076Z,98171.83
2017-11-01T18:43:20.848Z,98171.08
2017-11-01T18:45:48.427Z,98129.98
2017-11-01T18:48:16.050Z,98174.25
2017-11-01T18:50:43.883Z,98169.20
2017-11-01T18:53:11.817Z,98164.72
2017-11-01T18:55:39.479Z,98161.70
2017-11-01T18:58:07.051Z,98159.02
2017-11-01T19:00:34.676Z,98160.16
2017-11-01T19:03:02.258Z,98149.63
2017-11-01T19:05:31.250Z,98157.82
2017-11-01T19:07:58.875Z,98153.64
2017-11-01T19:10:26.492Z,98141.19
2017-11-01T19:12:56.797Z,98104.77
2017-11-01T19:15:25.886Z,98152.00
2017-11-01T19:17:53.443Z,98148.78
2017-11-01T19:20:21.302Z,98139.70
2017-11-01T19:22:48.854Z,98137.14
2017-11-01T19:25:16.400Z,98130.89
2017-11-01T19:27:44.255Z,98121.90
2017-11-01T19:30:11.834Z,98125.87
2017-11-01T19:32:39.409Z,98131.84
2017-11-01T19:35:06.968Z,98128.27
2017-11-01T19:37:35.429Z,98132.55
2017-11-01T19:40:02.981Z,98129.47
2017-11-01T19:42:31.279Z,98130.08
2017-11-01T19:44:58.855Z,98130.36
2017-11-01T19:47:26.429Z,98131.13
2017-11-01T19:49:54.075Z,98132.23
2017-11-01T19:52:21.688Z,98128.80
2017-11-01T19:54:49.244Z,98134.83
2017-11-01T19:57:16.842Z,98129.38
2017-11-01T19:59:44.502Z,98125.62
2017-11-01T20:02:12.019Z,98127.36
2017-11-01T20:04:39.694Z,98118.91
2017-11-01T20:07:07.230Z,98116.72
2017-11-01T20:09:35.885Z,98119.44
2017-11-01T20:12:03.492Z,98120.34
2017-11-01T20:14:31.104Z,98115.02
2017-11-01T20:16:59.146Z,98111.25
2017-11-01T20:19:26.749Z,98117.97
2017-11-01T20:21:54.552Z,98105.08
2017-11-01T20:24:22.468Z,98110.61
2017-11-01T20:26:50.222Z,98109.53
2017-11-01T20:29:17.953Z,98105.48
2017-11-01T20:31:45.636Z,98108.17
2017-11-01T20:34:13.204Z,98107.36
2017-11-01T20:36:40.765Z,98111.39
2017-11-01T20:39:08.744Z,98105.22
2017-11-01T20:41:36.412Z,98107.37
2017-11-01T20:44:04.937Z,98102.13
2017-11-01T20:46:32.643Z,98095.42
2017-11-01T20:49:00.268Z,98098.10
2017-11-01T20:51:27.917Z,98092.59
2017-11-01T20:53:55.600Z,98090.72
2017-11-01T20:56:24.149Z,98090.59
2017-11-01T20:58:51.708Z,98086.70
2017-11-01T21:01:19.314Z,98084.02
2017-11-01T21:03:46.987Z,98079.75
2017-11-01T21:06:14.659Z,98083.23
2017-11-01T21:08:42.878Z,98080.70
2017-11-01T21:11:10.680Z,98076.27
2017-11-01T21:13:38.343Z,98077.88
2017-11-01T21:16:05.880Z,98073.72
2017-11-01T21:18:33.553Z,98072.54
2017-11-01T21:21:01.267Z,98070.53
2017-11-01T21:23:28.901Z,98067.32
2017-11-01T21:25:56.503Z,98073.88
2017-11-01T21:28:24.814Z,98073.34
2017-11-01T21:30:52.410Z,98067.59
2017-11-01T21:33:20.136Z,98059.80
2017-11-01T21:35:48.312Z,98051.22
2017-11-01T21:38:15.839Z,98053.38
2017-11-01T21:40:43.482Z,98053.91
2017-11-01T21:43:11.121Z,98048.95
2017-11-01T21:45:39.747Z,98037.92
2017-11-01T21:48:07.371Z,98038.59
2017-11-01T21:50:34.974Z,98033.67
2017-11-01T21:53:02.685Z,98039.70
2017-11-01T21:55:30.278Z,98039.70
2017-11-01T21:57:57.838Z,98041.83
2017-11-01T22:00:26.416Z,98044.80
2017-11-01T22:02:54.001Z,98041.45
2017-11-01T22:05:21.694Z,98039.30
2017-11-01T22:07:49.300Z,98038.76
2017-11-01T22:10:17.875Z,98042.66
2017-11-01T22:12:46.010Z,98038.48
2017-11-01T22:15:13.586Z,98036.47
2017-11-01T22:17:41.149Z,98037.16
2017-11-01T22:20:08.732Z,98038.64
2017-11-01T22:22:36.293Z,98030.73
2017-11-01T22:25:03.927Z,98034.33
2017-11-01T22:27:36.960Z,98031.25
2017-11-01T22:30:04.890Z,98029.23
2017-11-01T22:32:33.685Z,98028.30
2017-11-01T22:35:01.301Z,98021.74
2017-11-01T22:37:30.233Z,98016.37
2017-11-01T22:39:57.879Z,98015.58
2017-11-01T22:42:25.489Z,98013.97
2017-11-01T22:44:53.368Z,98010.63
2017-11-01T22:47:21.380Z,98006.87
2017-11-01T22:49:49.446Z,98004.19
2017-11-01T22:52:17.137Z,97999.89
2017-11-01T22:54:45.818Z,97996.01
2017-11-01T22:57:15.494Z,97990.62
2017-11-01T22:59:43.172Z,97990.91
2017-11-01T23:02:10.716Z,97983.27
2017-11-01T23:04:38.467Z,97994.00
2017-11-01T23:07:06.165Z,97986.48
2017-11-01T23:09:33.962Z,97988.64
2017-11-01T23:12:01.704Z,97982.06
2017-11-01T23:14:29.394Z,97975.77
2017-11-01T23:16:56.969Z,97974.53
2017-11-01T23:19:24.644Z,97979.11
2017-11-01T23:21:52.433Z,97973.22
2017-11-01T23:24:20.098Z,97974.95
2017-11-01T23:26:47.677Z,97965.04
2017-11-01T23:29:15.689Z,97962.90
2017-11-01T23:31:43.292Z,97962.62
2017-11-01T23:34:10.851Z,97963.16
2017-11-01T23:36:38.466Z,97956.63
2017-11-01T23:39:08.893Z,97949.63
2017-11-01T23:41:36.487Z,97945.09
2017-11-01T23:44:05.562Z,97943.36
2017-11-01T23:46:33.134Z,97940.65
2017-11-01T23:49:00.733Z,97915.75
2017-11-01T23:51:28.262Z,97929.39
2017-11-01T23:53:55.780Z,97937.03
2017-11-01T23:56:23.403Z,97934.08
2017-11-01T23:58:50.957Z,97932.47
